createdAt,value
2018-03-18T00:00:06.521Z,4.53
2018-03-18T00:00:47.120Z,4.67
2018-03-18T00:01:27.824Z,4.74
2018-03-18T00:02:08.239Z,4.53
2018-03-18T00:02:49.035Z,4.51
2018-03-18T00:03:29.606Z,4.49
2018-03-18T00:04:10.098Z,4.34
2018-03-18T00:04:50.611Z,4.29
2018-03-18T00:05:30.987Z,4.25
2018-03-18T00:06:11.984Z,4.36
2018-03-18T00:06:52.081Z,4.34
2018-03-18T00:07:32.542Z,4.16
2018-03-18T00:08:13.916Z,4.08
2018-03-18T00:08:55.167Z,4.04
2018-03-18T00:09:35.761Z,4.04
2018-03-18T00:10:16.168Z,4.04
2018-03-18T00:10:56.623Z,4.02
2018-03-18T00:11:37.559Z,3.98
2018-03-18T00:12:17.735Z,4.14
2018-03-18T00:12:58.368Z,4.24
2018-03-18T00:13:38.614Z,4.36
2018-03-18T00:14:19.493Z,4.44
2018-03-18T00:15:01.505Z,4.62
2018-03-18T00:15:42.063Z,4.61
2018-03-18T00:16:22.389Z,4.59
2018-03-18T00:17:03.020Z,4.61
2018-03-18T00:17:43.435Z,4.61
2018-03-18T00:18:24.090Z,4.61
2018-03-18T00:19:05.147Z,4.62
2018-03-18T00:19:45.753Z,4.72
2018-03-18T00:20:26.523Z,4.77
2018-03-18T00:21:06.998Z,4.74
2018-03-18T00:21:47.341Z,4.77
2018-03-18T00:22:27.658Z,4.77
2018-03-18T00:23:08.233Z,4.8
2018-03-18T00:23:48.704Z,4.84
2018-03-18T00:24:29.048Z,4.8
2018-03-18T00:25:09.454Z,4.96
2018-03-18T00:25:49.970Z,4.88
2018-03-18T00:26:30.358Z,4.9
2018-03-18T00:27:10.956Z,4.99
2018-03-18T00:27:51.309Z,5.08
2018-03-18T00:28:31.601Z,5.08
2018-03-18T00:29:12.060Z,5.02
2018-03-18T00:29:52.574Z,5.01
2018-03-18T00:30:32.906Z,4.93
2018-03-18T00:31:13.283Z,4.97
2018-03-18T00:31:53.679Z,4.94
2018-03-18T00:32:36.056Z,4.87
2018-03-18T00:33:16.631Z,4.77
2018-03-18T00:33:57.080Z,4.75
2018-03-18T00:34:37.484Z,4.64
2018-03-18T00:35:17.983Z,4.56
2018-03-18T00:35:58.356Z,4.56
2018-03-18T00:36:38.789Z,4.68
2018-03-18T00:37:19.218Z,4.65
2018-03-18T00:37:59.617Z,4.77
2018-03-18T00:38:40.035Z,4.67
2018-03-18T00:39:20.463Z,4.5
2018-03-18T00:40:00.897Z,4.5
2018-03-18T00:40:41.437Z,4.49
2018-03-18T00:41:22.006Z,4.53
2018-03-18T00:42:02.259Z,4.54
2018-03-18T00:42:43.058Z,4.72
2018-03-18T00:43:23.386Z,4.65
2018-03-18T00:44:03.598Z,4.77
2018-03-18T00:44:44.619Z,4.72
2018-03-18T00:45:25.630Z,4.83
2018-03-18T00:46:06.146Z,4.91
2018-03-18T00:46:46.560Z,4.86
2018-03-18T00:47:27.132Z,4.96
2018-03-18T00:48:08.682Z,5.14
2018-03-18T00:48:48.908Z,4.87
2018-03-18T00:49:29.425Z,4.8
2018-03-18T00:50:09.915Z,4.79
2018-03-18T00:50:50.299Z,4.68
2018-03-18T00:51:30.652Z,4.75
2018-03-18T00:52:11.229Z,4.77
2018-03-18T00:52:52.335Z,4.83
2018-03-18T00:53:32.747Z,4.8
2018-03-18T00:54:13.257Z,4.75
2018-03-18T00:54:53.629Z,4.74
2018-03-18T00:55:34.103Z,4.86
2018-03-18T00:57:29.286Z,4.86
2018-03-18T00:58:09.331Z,4.86
2018-03-18T00:58:49.864Z,4.91
2018-03-18T00:59:30.589Z,4.91
2018-03-18T01:00:12.414Z,4.94
2018-03-18T01:00:55.303Z,5.05
2018-03-18T01:01:39.022Z,5.09
2018-03-18T01:02:21.835Z,4.97
2018-03-18T01:03:03.887Z,5.11
2018-03-18T01:03:44.302Z,4.77
2018-03-18T01:04:24.713Z,4.47
2018-03-18T01:05:05.070Z,4.06
2018-03-18T01:05:46.470Z,3.88
2018-03-18T01:06:27.403Z,3.89
2018-03-18T01:07:07.859Z,4.06
2018-03-18T01:07:48.565Z,4.02
2018-03-18T01:08:28.896Z,4
2018-03-18T01:09:10.092Z,3.95
2018-03-18T01:09:51.038Z,4.06
2018-03-18T01:10:31.600Z,4.13
2018-03-18T01:11:12.592Z,4.28
2018-03-18T01:11:53.167Z,4.51
2018-03-18T01:12:34.545Z,4.39
2018-03-18T01:13:17.269Z,4.43
2018-03-18T01:13:58.274Z,4.43
2018-03-18T01:14:46.853Z,4.59
2018-03-18T01:15:30.462Z,4.57
2018-03-18T01:16:11.158Z,4.51
2018-03-18T01:16:52.464Z,4.51
2018-03-18T01:17:32.716Z,4.68
2018-03-18T01:18:13.194Z,4.64
2018-03-18T01:18:53.547Z,4.72
2018-03-18T01:19:35.899Z,4.79
2018-03-18T01:20:17.166Z,4.77
2018-03-18T01:20:57.427Z,4.84
2018-03-18T01:21:40.553Z,4.94
2018-03-18T01:22:21.992Z,4.93
2018-03-18T01:23:02.179Z,4.93
2018-03-18T01:23:42.716Z,4.57
2018-03-18T01:24:24.239Z,4.56
2018-03-18T01:25:04.591Z,4.59
2018-03-18T01:25:45.169Z,4.67
2018-03-18T01:26:27.374Z,4.56
2018-03-18T01:31:22.709Z,4.57
2018-03-18T01:32:06.361Z,4.59
2018-03-18T01:32:47.695Z,4.53
2018-03-18T01:33:27.809Z,4.53
2018-03-18T01:34:08.307Z,4.54
2018-03-18T01:34:48.846Z,4.56
2018-03-18T01:35:29.785Z,4.51
2018-03-18T01:36:11.080Z,4.64
2018-03-18T01:36:52.358Z,4.54
2018-03-18T01:37:32.939Z,4.54
2018-03-18T01:38:13.759Z,4.34
2018-03-18T01:38:54.991Z,4.24
2018-03-18T01:39:36.362Z,4.13
2018-03-18T01:40:17.257Z,4.1
2018-03-18T01:40:57.775Z,3.81
2018-03-18T01:41:38.677Z,3.59
2018-03-18T01:42:19.007Z,3.53
2018-03-18T01:43:00.060Z,3.54
2018-03-18T01:43:40.148Z,3.63
2018-03-18T01:44:20.553Z,3.78
2018-03-18T01:45:02.721Z,3.98
2018-03-18T01:45:43.829Z,4.06
2018-03-18T01:46:24.373Z,4.08
2018-03-18T01:47:07.028Z,4.25
2018-03-18T01:47:48.110Z,4.38
2018-03-18T01:48:28.510Z,4.17
2018-03-18T01:49:09.028Z,4.02
2018-03-18T01:49:49.780Z,3.62
2018-03-18T01:50:31.492Z,3.53
2018-03-18T01:51:12.640Z,3.57
2018-03-18T01:51:52.921Z,3.68
2018-03-18T01:52:33.304Z,3.92
2018-03-18T01:53:15.365Z,4.11
2018-03-18T01:53:56.560Z,4.16
2018-03-18T01:54:39.290Z,4.25
2018-03-18T01:55:19.864Z,4.26
2018-03-18T01:56:00.408Z,4.18
2018-03-18T01:56:41.567Z,4.16
2018-03-18T01:57:24.892Z,4.13
2018-03-18T01:58:06.043Z,4.31
2018-03-18T01:58:46.628Z,4.42
2018-03-18T01:59:27.686Z,4.42
2018-03-18T02:00:10.255Z,4.38
2018-03-18T02:00:50.826Z,4.26
2018-03-18T02:01:31.274Z,4
2018-03-18T02:02:11.656Z,3.92
2018-03-18T02:02:52.134Z,3.98
2018-03-18T02:03:32.459Z,4.06
2018-03-18T02:04:14.045Z,4.11
2018-03-18T02:04:54.955Z,4.13
2018-03-18T02:05:35.525Z,4.08
2018-03-18T02:06:16.109Z,4.06
2018-03-18T02:06:56.651Z,3.96
2018-03-18T02:07:37.077Z,3.67
2018-03-18T02:08:18.018Z,3.63
2018-03-18T02:08:58.784Z,3.6
2018-03-18T02:09:39.279Z,3.6
2018-03-18T02:10:20.545Z,3.8
2018-03-18T02:11:01.254Z,3.92
2018-03-18T02:11:41.846Z,4.06
2018-03-18T02:12:22.372Z,4.07
2018-03-18T02:13:04.122Z,4.17
2018-03-18T02:13:45.450Z,4.35
2018-03-18T02:14:27.598Z,4.44
2018-03-18T02:15:08.404Z,4.64
2018-03-18T02:15:49.069Z,4.69
2018-03-18T02:16:29.785Z,4.57
2018-03-18T02:17:10.430Z,4.16
2018-03-18T02:17:50.998Z,4.07
2018-03-18T02:18:33.597Z,4.02
2018-03-18T02:19:16.167Z,3.89
2018-03-18T02:19:57.549Z,3.67
2018-03-18T02:20:39.167Z,3.56
2018-03-18T02:21:22.079Z,3.62
2018-03-18T02:22:04.907Z,3.68
2018-03-18T02:22:45.665Z,3.67
2018-03-18T02:23:26.251Z,3.5
2018-03-18T02:24:06.661Z,3.41
2018-03-18T02:24:47.366Z,3.37
2018-03-18T02:25:29.722Z,3.64
2018-03-18T02:26:10.432Z,3.74
2018-03-18T02:26:50.688Z,3.86
2018-03-18T02:27:31.726Z,4.06
2018-03-18T02:33:57.943Z,4.38
2018-03-18T02:34:38.309Z,4.49
2018-03-18T02:35:18.727Z,4.5
2018-03-18T02:35:59.142Z,4.56
2018-03-18T02:36:39.520Z,4.54
2018-03-18T02:37:19.973Z,4.47
2018-03-18T02:41:05.431Z,4.21
2018-03-18T02:48:00.259Z,3.6
2018-03-18T02:48:41.258Z,3.7
2018-03-18T02:49:22.339Z,3.74
2018-03-18T02:50:02.775Z,3.67
2018-03-18T02:50:43.240Z,3.67
2018-03-18T02:51:24.343Z,3.37
2018-03-18T02:52:05.471Z,3.02
2018-03-18T02:52:45.845Z,2.92
2018-03-18T02:53:28.078Z,2.97
2018-03-18T02:54:11.245Z,3.13
2018-03-18T02:54:54.080Z,3.16
2018-03-18T02:55:35.704Z,3.31
2018-03-18T02:56:17.024Z,3.37
2018-03-18T02:56:57.558Z,3.56
2018-03-18T02:57:38.036Z,3.63
2018-03-18T02:58:18.342Z,3.71
2018-03-18T02:58:59.081Z,3.86
2018-03-18T02:59:39.992Z,3.71
2018-03-18T03:00:20.434Z,3.62
2018-03-18T03:01:00.873Z,3.39
2018-03-18T03:01:43.102Z,3.31
2018-03-18T03:02:24.419Z,3.37
2018-03-18T03:03:04.994Z,3.42
2018-03-18T03:03:45.315Z,3.56
2018-03-18T03:04:25.749Z,3.7
2018-03-18T03:05:06.165Z,3.68
2018-03-18T03:05:47.458Z,3.62
2018-03-18T03:06:28.008Z,3.53
2018-03-18T03:07:08.850Z,3.23
2018-03-18T03:07:49.205Z,2.81
2018-03-18T03:08:30.692Z,2.76
2018-03-18T03:09:11.224Z,2.56
2018-03-18T03:09:52.032Z,2.53
2018-03-18T03:10:32.272Z,2.59
2018-03-18T03:11:13.087Z,2.61
2018-03-18T03:11:54.971Z,2.74
2018-03-18T03:12:35.680Z,2.84
2018-03-18T03:13:15.932Z,3.15
2018-03-18T03:13:56.300Z,3.31
2018-03-18T03:14:37.592Z,3.34
2018-03-18T03:15:21.399Z,3.49
2018-03-18T03:16:03.645Z,3.6
2018-03-18T03:16:44.490Z,3.62
2018-03-18T03:17:25.058Z,3.6
2018-03-18T03:18:05.312Z,3.57
2018-03-18T03:18:45.735Z,3.34
2018-03-18T03:19:26.428Z,3.34
2018-03-18T03:20:08.226Z,3.41
2018-03-18T03:20:49.156Z,3.44
2018-03-18T03:21:29.982Z,3.64
2018-03-18T03:22:10.986Z,3.6
2018-03-18T03:22:51.381Z,3.63
2018-03-18T03:23:31.844Z,3.67
2018-03-18T03:24:12.427Z,3.71
2018-03-18T03:24:54.367Z,3.77
2018-03-18T03:25:36.297Z,3.93
2018-03-18T03:26:16.827Z,4.04
2018-03-18T03:26:57.146Z,3.98
2018-03-18T03:27:39.776Z,3.71
2018-03-18T03:28:23.838Z,3.64
2018-03-18T03:29:05.424Z,3.63
2018-03-18T03:29:50.348Z,3.56
2018-03-18T03:30:31.343Z,3.59
2018-03-18T03:31:11.804Z,3.62
2018-03-18T03:31:53.046Z,3.7
2018-03-18T03:32:33.430Z,3.74
2018-03-18T03:33:14.234Z,3.77
2018-03-18T03:33:54.561Z,3.7
2018-03-18T03:34:34.936Z,3.84
2018-03-18T03:35:16.404Z,3.81
2018-03-18T03:35:56.826Z,3.98
2018-03-18T03:36:37.209Z,4.02
2018-03-18T03:37:19.479Z,4.2
2018-03-18T03:38:00.758Z,4.16
2018-03-18T03:38:41.124Z,3.96
2018-03-18T03:39:22.276Z,3.89
2018-03-18T03:40:03.197Z,4.07
2018-03-18T03:40:44.804Z,4.16
2018-03-18T03:41:25.158Z,4.16
2018-03-18T03:42:05.800Z,4.02
2018-03-18T03:42:46.350Z,4.07
2018-03-18T03:43:27.181Z,4.06
2018-03-18T03:44:11.461Z,4.16
2018-03-18T03:44:52.087Z,4.28
2018-03-18T03:45:32.539Z,4.28
2018-03-18T03:46:13.715Z,4.18
2018-03-18T03:46:54.031Z,4.16
2018-03-18T03:47:35.412Z,3.89
2018-03-18T03:48:17.427Z,3.64
2018-03-18T03:48:58.352Z,3.57
2018-03-18T03:49:39.446Z,3.46
2018-03-18T03:50:20.152Z,3.34
2018-03-18T03:51:00.608Z,3.53
2018-03-18T03:51:41.456Z,3.57
2018-03-18T03:52:23.487Z,3.41
2018-03-18T03:53:04.184Z,3.31
2018-03-18T03:53:45.564Z,3.39
2018-03-18T03:54:27.993Z,3.13
2018-03-18T03:55:08.882Z,2.98
2018-03-18T03:55:56.202Z,3.13
2018-03-18T03:56:38.650Z,3.26
2018-03-18T03:57:22.009Z,3.44
2018-03-18T03:58:02.840Z,3.56
2018-03-18T03:58:44.407Z,3.2
2018-03-18T03:59:24.852Z,3.16
2018-03-18T04:00:05.736Z,3.22
2018-03-18T04:00:46.407Z,3.2
2018-03-18T04:01:27.656Z,3.28
2018-03-18T04:02:09.420Z,3.31
2018-03-18T04:02:50.343Z,3.28
2018-03-18T04:03:31.573Z,3.34
2018-03-18T04:04:12.375Z,3.56
2018-03-18T04:04:54.027Z,3.82
2018-03-18T04:05:39.967Z,3.68
2018-03-18T04:06:21.418Z,3.77
2018-03-18T04:47:04.610Z,4.31
2018-03-18T04:49:17.514Z,4.21
2018-03-18T04:49:57.856Z,4.02
2018-03-18T04:52:11.979Z,3.9
2018-03-18T04:53:59.572Z,3.53
2018-03-18T04:54:39.885Z,3.49
2018-03-18T04:56:29.075Z,3.56
2018-03-18T04:58:42.462Z,3.49
2018-03-18T04:59:37.399Z,3.3
2018-03-18T05:01:15.051Z,2.95
2018-03-18T05:01:55.413Z,2.65
2018-03-18T05:02:35.817Z,2.53
2018-03-18T05:05:57.100Z,2.87
2018-03-18T05:06:37.424Z,2.92
2018-03-18T05:08:26.460Z,3.05
2018-03-18T05:10:14.426Z,3.16
2018-03-18T05:10:54.794Z,3.22
2018-03-18T05:11:35.160Z,3.17
2018-03-18T05:12:15.572Z,3.08
2018-03-18T05:12:55.985Z,3.3
2018-03-18T05:13:36.371Z,3.26
2018-03-18T05:15:49.394Z,3.5
2018-03-18T05:16:29.746Z,3.35
2018-03-18T05:17:10.150Z,3.39
2018-03-18T05:17:50.574Z,3.33
2018-03-18T05:20:04.513Z,3.13
2018-03-18T05:20:44.868Z,2.41
2018-03-18T05:24:07.517Z,1.28
2018-03-18T05:24:53.079Z,1.24
2018-03-18T05:28:03.708Z,1.63
2018-03-18T05:29:52.491Z,1.88
2018-03-18T05:30:32.774Z,2.05
2018-03-18T05:32:45.756Z,2.33
2018-03-18T05:34:58.643Z,2.69
2018-03-18T05:37:11.607Z,2.89
2018-03-18T05:37:51.938Z,2.98
2018-03-18T05:38:32.340Z,3.08
2018-03-18T05:40:21.076Z,3.25
2018-03-18T05:41:01.491Z,3.33
2018-03-18T05:42:49.212Z,3.57
2018-03-18T05:43:29.553Z,3.68
2018-03-18T05:44:09.899Z,3.74
2018-03-18T05:47:57.397Z,3.95
2018-03-18T05:50:10.396Z,4.07
2018-03-18T05:55:28.435Z,3.99
2018-03-18T05:57:16.425Z,3.95
2018-03-18T05:59:29.415Z,4.17
2018-03-18T06:03:15.852Z,3.93
2018-03-18T06:05:03.408Z,4.11
2018-03-18T06:05:43.803Z,4.21
2018-03-18T06:06:24.194Z,4.26
2018-03-18T06:07:04.574Z,4.28
2018-03-18T06:07:45.006Z,4.28
2018-03-18T06:08:25.397Z,4.31
2018-03-18T06:16:50.480Z,4.02
2018-03-18T06:17:30.804Z,4.11
2018-03-18T06:18:11.251Z,4.11
2018-03-18T06:18:51.624Z,4.18
2018-03-18T06:19:32.058Z,4.21
2018-03-18T06:21:46.419Z,4.31
2018-03-18T06:23:34.530Z,4.35
2018-03-18T06:24:14.813Z,4.34
2018-03-18T06:26:02.560Z,4.43
2018-03-18T06:27:50.418Z,4.5
2018-03-18T06:28:30.842Z,4.46
2018-03-18T06:29:11.160Z,4.42
2018-03-18T06:29:51.579Z,4.14
2018-03-18T06:30:31.924Z,4.04
2018-03-18T06:31:12.340Z,3.63
2018-03-18T06:31:52.736Z,3.41
2018-03-18T06:34:11.408Z,3.35
2018-03-18T06:34:50.441Z,3.37
2018-03-18T06:35:31.399Z,3.28
2018-03-18T06:36:12.166Z,3.45
2018-03-18T06:36:53.488Z,3.37
2018-03-18T06:37:35.391Z,3.41
2018-03-18T06:38:15.286Z,3.44
2018-03-18T06:38:56.299Z,3.52
2018-03-18T06:39:36.343Z,3.59
2018-03-18T06:40:16.895Z,3.53
2018-03-18T06:40:58.436Z,3.56
2018-03-18T06:41:39.725Z,3.57
2018-03-18T06:44:00.802Z,3.78
2018-03-18T06:44:41.214Z,3.82
2018-03-18T06:51:34.038Z,4.25
2018-03-18T06:52:14.372Z,4.31
2018-03-18T06:52:54.794Z,4.36
2018-03-18T06:53:35.176Z,4.31
2018-03-18T06:54:15.589Z,4.28
2018-03-18T06:54:55.969Z,4.31
2018-03-18T06:55:36.355Z,4.42
2018-03-18T06:56:16.768Z,4.34
2018-03-18T07:00:04.242Z,4.38
2018-03-18T07:00:44.531Z,4.35
2018-03-18T07:08:43.500Z,3.28
2018-03-18T07:09:23.824Z,2.65
2018-03-18T07:10:04.187Z,2.4
2018-03-18T07:12:19.254Z,2.97
2018-03-18T07:13:08.467Z,3.28
2018-03-18T07:13:56.737Z,3.53
2018-03-18T07:14:39.668Z,3.53
2018-03-18T07:15:20.555Z,3.45
2018-03-18T07:16:01.333Z,3.49
2018-03-18T07:16:41.571Z,3.3
2018-03-18T07:17:21.976Z,3.44
2018-03-18T07:18:04.244Z,3.41
2018-03-18T07:18:44.576Z,3.31
2018-03-18T07:19:26.014Z,3.08
2018-03-18T07:20:07.026Z,2.99
2018-03-18T07:20:47.162Z,2.81
2018-03-18T07:21:27.593Z,2.73
2018-03-18T07:22:08.049Z,2.69
2018-03-18T07:22:48.615Z,2.76
2018-03-18T07:23:28.894Z,2.84
2018-03-18T07:24:09.415Z,2.81
2018-03-18T07:24:49.868Z,2.71
2018-03-18T07:25:30.346Z,2.76
2018-03-18T07:26:13.051Z,2.73
2018-03-18T07:26:54.579Z,2.69
2018-03-18T07:27:35.892Z,2.69
2018-03-18T07:28:16.549Z,2.44
2018-03-18T07:28:57.317Z,2.48
2018-03-18T07:29:40.128Z,2.36
2018-03-18T07:30:20.678Z,2.44
2018-03-18T07:31:01.072Z,2.51
2018-03-18T07:31:41.670Z,2.5
2018-03-18T07:32:22.265Z,2.62
2018-03-18T07:33:02.814Z,2.73
2018-03-18T07:33:43.099Z,2.97
2018-03-18T07:34:23.590Z,3.2
2018-03-18T07:35:04.583Z,3.26
2018-03-18T07:35:44.931Z,3.04
2018-03-18T07:36:25.367Z,2.9
2018-03-18T07:37:07.624Z,3.13
2018-03-18T07:37:48.237Z,3.13
2018-03-18T07:38:30.692Z,3.2
2018-03-18T07:39:10.920Z,3.28
2018-03-18T07:39:51.426Z,3.39
2018-03-18T07:40:31.870Z,3.62
2018-03-18T07:41:12.700Z,3.84
2018-03-18T07:41:53.602Z,4
2018-03-18T07:42:34.133Z,4.26
2018-03-18T07:43:14.476Z,4.42
2018-03-18T07:43:54.870Z,4.64
2018-03-18T07:44:35.324Z,4.56
2018-03-18T07:45:16.324Z,4.61
2018-03-18T07:45:56.844Z,4.53
2018-03-18T07:46:37.248Z,4.56
2018-03-18T07:47:17.891Z,4.61
2018-03-18T07:47:58.281Z,4.62
2018-03-18T07:48:38.677Z,4.75
2018-03-18T07:49:19.138Z,4.91
2018-03-18T07:50:01.117Z,4.72
2018-03-18T07:50:41.585Z,4.64
2018-03-18T07:51:21.947Z,4.79
2018-03-18T07:52:02.333Z,5.01
2018-03-18T07:52:43.410Z,5.09
2018-03-18T07:53:23.903Z,5.11
2018-03-18T07:54:04.332Z,5.33
2018-03-18T07:54:44.890Z,4.94
2018-03-18T07:55:25.133Z,4.96
2018-03-18T07:56:05.540Z,4.94
2018-03-18T07:56:46.741Z,5.06
2018-03-18T07:57:27.513Z,5.15
2018-03-18T07:58:07.983Z,5.37
2018-03-18T07:58:48.487Z,5.48
2018-03-18T07:59:28.835Z,5.4
2018-03-18T08:00:09.261Z,5.48
2018-03-18T08:00:50.086Z,5.38
2018-03-18T08:01:30.630Z,5.32
2018-03-18T08:02:11.150Z,5.4
2018-03-18T08:02:51.418Z,5.55
2018-03-18T08:03:31.827Z,5.6
2018-03-18T08:04:12.268Z,5.51
2018-03-18T08:04:52.901Z,5.55
2018-03-18T08:05:33.014Z,5.45
2018-03-18T08:06:14.486Z,5.6
2018-03-18T08:06:54.619Z,5.7
2018-03-18T08:07:34.998Z,5.85
2018-03-18T08:08:17.780Z,5.88
2018-03-18T08:08:58.057Z,5.74
2018-03-18T08:09:38.482Z,5.51
2018-03-18T08:10:18.922Z,5.47
2018-03-18T08:10:59.520Z,5.37
2018-03-18T08:11:39.957Z,5.45
2018-03-18T08:12:21.089Z,5.37
2018-03-18T08:13:03.540Z,5.48
2018-03-18T08:17:46.929Z,4.54
2018-03-18T08:18:27.312Z,4.59
2018-03-18T08:19:07.738Z,4.65
2018-03-18T08:19:48.242Z,4.71
2018-03-18T08:20:28.602Z,4.56
2018-03-18T08:21:08.995Z,4.43
2018-03-18T08:21:49.381Z,4.53
2018-03-18T08:28:40.919Z,4.61
2018-03-18T08:29:21.302Z,4.25
2018-03-18T08:30:01.671Z,4.2
2018-03-18T08:30:42.085Z,4.02
2018-03-18T08:32:55.074Z,4.17
2018-03-18T08:33:35.458Z,4.31
2018-03-18T08:37:21.881Z,4.64
2018-03-18T08:39:09.602Z,4.83
2018-03-18T08:39:49.920Z,4.86
2018-03-18T08:46:45.551Z,4.5
2018-03-18T08:48:34.492Z,4.56
2018-03-18T08:49:14.810Z,4.51
2018-03-18T08:49:55.198Z,4.65
2018-03-18T08:50:35.660Z,4.8
2018-03-18T08:51:16.043Z,4.91
2018-03-18T08:51:56.453Z,5.04
2018-03-18T09:00:03.129Z,4.83
2018-03-18T09:00:44.062Z,4.94
2018-03-18T09:01:25.381Z,4.97
2018-03-18T09:02:05.888Z,5.04
2018-03-18T09:02:46.449Z,5.01
2018-03-18T09:03:26.824Z,5.17
2018-03-18T09:04:07.272Z,5.24
2018-03-18T09:04:47.671Z,5.37
2018-03-18T09:05:30.211Z,5.29
2018-03-18T09:06:11.411Z,5.14
2018-03-18T09:06:52.379Z,5.04
2018-03-18T09:07:33.513Z,4.93
2018-03-18T09:08:13.994Z,4.83
2018-03-18T09:08:54.418Z,4.94
2018-03-18T09:09:34.963Z,5.11
2018-03-18T09:16:07.294Z,5.66
2018-03-18T09:16:47.639Z,5.65
2018-03-18T09:17:28.077Z,5.65
2018-03-18T09:18:24.399Z,5.67
2018-03-18T09:19:11.495Z,5.73
2018-03-18T09:19:51.984Z,5.74
2018-03-18T09:20:32.476Z,5.84
2018-03-18T09:25:51.508Z,5.55
2018-03-18T09:26:31.906Z,5.55
2018-03-18T09:27:12.306Z,5.73
2018-03-18T09:27:52.818Z,5.7
2018-03-18T09:28:33.302Z,5.8
2018-03-18T09:29:13.693Z,5.75
2018-03-18T09:29:54.104Z,5.84
2018-03-18T09:30:34.449Z,5.96
2018-03-18T09:41:38.789Z,5.98
2018-03-18T09:42:19.120Z,6.02
2018-03-18T09:42:59.492Z,6.08
2018-03-18T09:43:40.001Z,6.21
2018-03-18T09:44:20.345Z,6.14
2018-03-18T09:45:00.744Z,6.36
2018-03-18T09:45:41.201Z,6.27
2018-03-18T09:46:21.573Z,6.36
2018-03-18T09:47:02.007Z,6.27
2018-03-18T09:47:42.448Z,6.3
2018-03-18T09:48:22.803Z,6.33
2018-03-18T09:49:03.234Z,6.24
2018-03-18T09:49:43.963Z,6.32
2018-03-18T09:50:24.314Z,6.45
2018-03-18T09:51:04.868Z,6.48
2018-03-18T09:51:45.255Z,6.46
2018-03-18T09:52:25.696Z,6.45
2018-03-18T10:47:36.505Z,6.4
2018-03-18T10:51:22.870Z,6.46
2018-03-18T10:52:03.275Z,6.36
2018-03-18T10:58:54.030Z,6.35
2018-03-18T10:59:34.349Z,6.08
2018-03-18T11:00:14.759Z,6.21
2018-03-18T11:00:55.167Z,6.17
2018-03-18T11:01:35.592Z,6.1
2018-03-18T11:02:16.034Z,6.01
2018-03-18T11:02:56.418Z,5.77
2018-03-18T11:03:36.846Z,5.58
2018-03-18T11:04:17.214Z,5.42
2018-03-18T11:04:57.566Z,5.51
2018-03-18T11:05:37.991Z,5.65
2018-03-18T11:06:18.398Z,5.84
2018-03-18T11:06:58.783Z,5.93
2018-03-18T11:07:39.181Z,6.14
2018-03-18T11:08:19.591Z,6.06
2018-03-18T11:09:00.059Z,6.05
2018-03-18T11:09:40.410Z,5.96
2018-03-18T11:10:20.850Z,5.77
2018-03-18T11:11:01.280Z,5.73
2018-03-18T11:11:41.628Z,5.65
2018-03-18T11:12:22.110Z,5.78
2018-03-18T11:13:02.443Z,5.9
2018-03-18T11:13:57.710Z,6.01
2018-03-18T11:22:00.209Z,6.02
2018-03-18T11:22:41.286Z,6.06
2018-03-18T11:23:22.174Z,6.27
2018-03-18T11:24:02.642Z,6.4
2018-03-18T11:24:42.984Z,6.51
2018-03-18T11:25:23.506Z,6.42
2018-03-18T11:26:03.888Z,6.45
2018-03-18T11:26:44.355Z,6.54
2018-03-18T11:27:24.915Z,6.65
2018-03-18T11:28:05.302Z,6.76
2018-03-18T11:28:45.775Z,6.87
2018-03-18T11:29:26.257Z,6.96
2018-03-18T11:30:06.764Z,6.91
2018-03-18T11:30:47.064Z,6.93
2018-03-18T11:31:27.614Z,7
2018-03-18T11:32:08.013Z,6.91
2018-03-18T11:32:48.459Z,6.82
2018-03-18T11:33:29.584Z,6.81
2018-03-18T11:34:10.013Z,6.91
2018-03-18T11:34:51.049Z,6.68
2018-03-18T11:35:31.594Z,6.17
2018-03-18T11:36:12.055Z,5.95
2018-03-18T11:36:52.529Z,5.81
2018-03-18T11:37:34.501Z,5.78
2018-03-18T11:38:14.917Z,5.83
2018-03-18T11:38:55.521Z,5.98
2018-03-18T11:39:35.837Z,5.32
2018-03-18T11:40:16.201Z,4.87
2018-03-18T11:40:56.634Z,4.65
2018-03-18T11:41:37.086Z,4.61
2018-03-18T11:42:17.548Z,4.57
2018-03-18T11:44:30.609Z,4.71
2018-03-18T11:45:10.980Z,4.79
2018-03-18T11:45:51.413Z,4.9
2018-03-18T11:46:31.819Z,5.12
2018-03-18T11:47:12.151Z,5.33
2018-03-18T11:47:52.566Z,5.48
2018-03-18T11:48:32.928Z,5.29
2018-03-18T11:49:13.352Z,5.26
2018-03-18T11:49:53.768Z,5.02
2018-03-18T11:50:34.139Z,4.93
2018-03-18T11:51:14.575Z,4.74
2018-03-18T11:51:54.974Z,4.68
2018-03-18T11:52:35.366Z,4.68
2018-03-18T11:53:15.751Z,4.61
2018-03-18T11:53:56.092Z,4.71
2018-03-18T11:54:36.543Z,4.77
2018-03-18T11:55:16.989Z,4.79
2018-03-18T11:55:57.394Z,4.75
2018-03-18T11:56:37.846Z,4.77
2018-03-18T11:57:18.169Z,4.83
2018-03-18T11:57:58.632Z,4.96
2018-03-18T11:58:39.016Z,5.05
2018-03-18T11:59:19.445Z,5.2
2018-03-18T11:59:59.807Z,5.09
2018-03-18T12:00:40.243Z,5.23
2018-03-18T12:01:20.679Z,5.09
2018-03-18T12:02:01.081Z,4.74
2018-03-18T12:02:41.433Z,4.36
2018-03-18T12:03:29.006Z,4.14
2018-03-18T12:04:09.405Z,4.04
2018-03-18T12:04:49.888Z,4
2018-03-18T12:05:30.249Z,3.86
2018-03-18T12:06:10.643Z,3.59
2018-03-18T12:06:51.057Z,3.68
2018-03-18T12:07:31.502Z,3.89
2018-03-18T12:08:11.902Z,4.02
2018-03-18T12:09:07.638Z,4.11
2018-03-18T12:09:48.070Z,3.84
2018-03-18T12:10:43.348Z,3.39
2018-03-18T12:11:23.755Z,3.39
2018-03-18T12:12:04.202Z,3.13
2018-03-18T12:12:45.237Z,3.15
2018-03-18T12:13:25.616Z,3.19
2018-03-18T12:14:06.047Z,3.28
2018-03-18T12:14:46.434Z,3.3
2018-03-18T12:15:26.854Z,3.57
2018-03-18T12:16:07.697Z,3.8
2018-03-18T12:16:48.124Z,3.96
2018-03-18T12:17:28.603Z,4.02
2018-03-18T12:18:09.041Z,4.06
2018-03-18T12:18:49.415Z,4.21
2018-03-18T12:19:29.777Z,4.47
2018-03-18T12:20:10.202Z,4.51
2018-03-18T12:20:50.567Z,4.77
2018-03-18T12:21:30.994Z,4.8
2018-03-18T12:22:11.429Z,4.75
2018-03-18T12:22:51.787Z,4.65
2018-03-18T12:23:32.216Z,4.44
2018-03-18T12:24:12.635Z,4.2
2018-03-18T12:24:53.012Z,3.99
2018-03-18T12:25:33.418Z,4.08
2018-03-18T12:26:13.832Z,3.99
2018-03-18T12:26:54.230Z,3.81
2018-03-18T12:27:34.632Z,3.93
2018-03-18T12:28:15.017Z,4.17
2018-03-18T12:28:55.488Z,4.29
2018-03-18T12:29:35.878Z,4.56
2018-03-18T12:30:16.263Z,4.64
2018-03-18T12:30:56.692Z,4.51
2018-03-18T12:31:37.109Z,4.62
2018-03-18T12:32:17.503Z,4.68
2018-03-18T12:32:57.905Z,4.77
2018-03-18T12:33:38.334Z,4.71
2018-03-18T12:34:18.728Z,4.94
2018-03-18T12:34:59.108Z,4.91
2018-03-18T12:35:39.465Z,4.86
2018-03-18T12:36:19.890Z,4.8
2018-03-18T12:37:00.338Z,4.96
2018-03-18T12:37:40.695Z,5.11
2018-03-18T12:38:21.103Z,5.33
2018-03-18T12:39:01.554Z,5.49
2018-03-18T12:39:41.944Z,5.74
2018-03-18T12:40:22.385Z,5.96
2018-03-18T12:41:02.838Z,6.08
2018-03-18T12:46:23.423Z,6.75
2018-03-18T12:47:03.059Z,6.86
2018-03-18T12:47:43.509Z,7.05
2018-03-18T12:48:24.578Z,6.83
2018-03-18T12:49:05.086Z,7.05
2018-03-18T12:49:45.681Z,6.78
2018-03-18T12:50:27.698Z,6.78
2018-03-18T12:51:08.102Z,6.94
2018-03-18T12:51:49.868Z,7.11
2018-03-18T12:52:30.297Z,7.09
2018-03-18T12:53:10.808Z,7.16
2018-03-18T12:53:51.349Z,7.16
2018-03-18T12:54:31.768Z,7.16
2018-03-18T12:55:12.204Z,6.99
2018-03-18T12:55:52.680Z,6.82
2018-03-18T12:56:33.173Z,6.82
2018-03-18T12:57:13.682Z,6.87
2018-03-18T12:57:53.952Z,6.96
2018-03-18T12:58:34.438Z,7.01
2018-03-18T12:59:15.427Z,7.18
2018-03-18T12:59:56.132Z,7.29
2018-03-18T13:00:36.814Z,7.55
2018-03-18T13:01:17.210Z,7.6
2018-03-18T13:01:57.510Z,7.71
2018-03-18T13:02:37.911Z,7.67
2018-03-18T13:03:18.924Z,7.48
2018-03-18T13:04:00.199Z,6.94
2018-03-18T13:04:40.913Z,6.81
2018-03-18T13:05:21.344Z,6.57
2018-03-18T13:06:01.613Z,6.54
2018-03-18T13:06:42.094Z,6.6
2018-03-18T13:07:22.458Z,6.72
2018-03-18T13:08:02.860Z,6.53
2018-03-18T13:08:43.523Z,6.48
2018-03-18T13:09:24.162Z,6.57
2018-03-18T13:10:04.643Z,6.48
2018-03-18T13:10:45.313Z,6.01
2018-03-18T13:11:25.797Z,5.62
2018-03-18T13:12:07.085Z,5.52
2018-03-18T13:12:47.438Z,5.37
2018-03-18T13:13:28.158Z,5.37
2018-03-18T13:14:08.583Z,5.26
2018-03-18T13:14:48.935Z,5.06
2018-03-18T13:15:29.443Z,4.94
2018-03-18T13:16:09.821Z,5.09
2018-03-18T13:16:50.232Z,5.17
2018-03-18T13:17:30.942Z,5.27
2018-03-18T13:18:11.344Z,5.56
2018-03-18T13:26:20.977Z,6.96
2018-03-18T13:27:01.333Z,6.91
2018-03-18T13:27:41.744Z,6.91
2018-03-18T13:28:22.190Z,6.64
2018-03-18T13:29:02.512Z,6.61
2018-03-18T13:29:42.923Z,6.63
2018-03-18T13:30:23.410Z,6.72
2018-03-18T13:31:03.807Z,6.64
2018-03-18T13:31:44.224Z,6.68
2018-03-18T13:32:24.634Z,6.71
2018-03-18T13:33:05.055Z,6.53
2018-03-18T13:33:45.426Z,6.51
2018-03-18T13:34:25.853Z,6.35
2018-03-18T13:44:27.362Z,6.01
2018-03-18T13:45:07.968Z,6.16
2018-03-18T13:45:48.378Z,6.24
2018-03-18T13:46:28.810Z,6.32
2018-03-18T13:47:09.331Z,6.4
2018-03-18T13:47:49.941Z,6.48
2018-03-18T13:48:30.538Z,6.28
2018-03-18T13:49:10.964Z,6.01
2018-03-18T13:49:51.452Z,5.75
2018-03-18T13:50:32.644Z,5.62
2018-03-18T13:51:13.032Z,5.65